Time;durP1;ratioP1;P1;durP2;ratioP2;P2;SDS_P1;SDS_P2;PMS_P1;PMS_P2;Temp;Humidity;BMP_temperature;BMP_pressure;BME280_temperature;BME280_humidity;BME280_pressure;Samples;Min_cycle;Max_cycle;Signal;HPM_P1;HPM_P2
2020/12/11 00:01:33;;;;;;;30.67;17.23;;;;;;;0.14;100.00;100357.78;1834373;75;23951;-83
2020/12/11 00:14:47;;;;;;;25.33;14.83;;;;;;;0.19;100.00;100362.59;1846132;75;24005;-83
2020/12/11 00:17:29;;;;;;;24.20;14.10;;;;;;;0.21;100.00;100363.52;1794309;79;23981;-81
2020/12/11 00:19:57;;;;;;;33.37;16.87;;;;;;;0.13;100.00;100369.64;1793688;78;20955;-83
2020/12/11 00:22:27;;;;;;;27.32;15.45;;;;;;;0.15;100.00;100369.26;1793535;78;21433;-82
2020/12/11 00:24:56;;;;;;;25.20;14.87;;;;;;;0.17;100.00;100362.55;1824330;76;20977;-83
2020/12/11 00:27:24;;;;;;;34.10;18.30;;;;;;;0.16;100.00;100364.65;1794796;78;21079;-82
2020/12/11 00:29:53;;;;;;;26.53;16.20;;;;;;;0.15;100.00;100365.44;1802849;78;20998;-82
2020/12/11 00:32:21;;;;;;;37.47;18.40;;;;;;;0.18;100.00;100365.55;1797832;78;20942;-83
2020/12/11 00:34:51;;;;;;;30.87;18.47;;;;;;;0.19;100.00;100363.86;1797281;78;21099;-82
2020/12/11 00:37:19;;;;;;;29.60;16.30;;;;;;;0.21;100.00;100358.42;1824386;76;21001;-82
2020/12/11 00:39:47;;;;;;;27.30;17.20;;;;;;;0.24;100.00;100364.88;1761333;80;21153;-82
2020/12/11 00:42:20;;;;;;;25.87;16.27;;;;;;;0.22;100.00;100359.73;1814082;78;21139;-81
2020/12/11 00:44:48;;;;;;;24.27;15.70;;;;;;;0.23;100.00;100343.67;1797842;78;21116;-84
2020/12/11 00:47:17;;;;;;;26.50;15.27;;;;;;;0.24;100.00;100348.34;1793119;78;21123;-83
2020/12/11 00:49:45;;;;;;;31.80;15.80;;;;;;;0.25;100.00;100350.06;1803958;78;21177;-83
2020/12/11 00:52:14;;;;;;;27.77;16.80;;;;;;;0.24;100.00;100344.53;1794657;78;20959;-83
2020/12/11 00:54:44;;;;;;;30.30;16.25;;;;;;;0.29;100.00;100354.42;1795851;78;21125;-82
2020/12/11 00:57:12;;;;;;;24.63;14.00;;;;;;;0.25;100.00;100350.48;1808952;77;21057;-82
2020/12/11 00:59:42;;;;;;;22.60;14.43;;;;;;;0.25;100.00;100347.52;1819782;76;21508;-84
2020/12/11 01:02:13;;;;;;;28.00;16.20;;;;;;;0.29;100.00;100349.34;1776855;78;21037;-83
2020/12/11 01:04:43;;;;;;;26.03;16.20;;;;;;;0.31;100.00;100348.98;1759732;81;21065;-85
2020/12/11 01:07:11;;;;;;;24.37;14.60;;;;;;;0.31;100.00;100348.98;1717026;82;21061;-83
2020/12/11 01:09:46;;;;;;;26.10;15.73;;;;;;;0.38;100.00;100341.14;1758894;80;21545;-84
2020/12/11 01:12:44;;;;;;;24.70;13.73;;;;;;;0.41;100.00;100345.05;1748272;79;21752;-84
2020/12/11 01:15:28;;;;;;;22.47;13.17;;;;;;;0.39;100.00;100355.58;1738511;80;21150;-84
2020/12/11 01:18:26;;;;;;;26.47;15.23;;;;;;;0.35;100.00;100346.98;1719933;80;21048;-83
2020/12/11 01:21:09;;;;;;;22.87;12.83;;;;;;;0.38;100.00;100347.09;1699432;81;21093;-83
2020/12/11 01:24:07;;;;;;;23.90;12.97;;;;;;;0.35;100.00;100347.41;1723328;78;21193;-84
2020/12/11 01:26:51;;;;;;;24.10;14.23;;;;;;;0.31;100.00;100336.27;1755017;79;21390;-83
2020/12/11 01:29:40;;;;;;;27.33;14.73;;;;;;;0.34;100.00;100338.91;1714607;80;21081;-85
2020/12/11 01:32:39;;;;;;;24.47;14.93;;;;;;;0.31;100.00;100333.72;1737587;77;21149;-84
2020/12/11 01:35:10;;;;;;;23.67;13.27;;;;;;;0.34;100.00;100340.59;1745679;79;20939;-84
2020/12/11 01:37:45;;;;;;;25.13;15.70;;;;;;;0.31;100.00;100327.77;1724412;79;21214;-84
2020/12/11 01:40:44;;;;;;;23.93;13.83;;;;;;;0.31;100.00;100329.05;1709595;81;21381;-84
2020/12/11 01:43:54;;;;;;;22.17;12.30;;;;;;;0.33;100.00;100332.52;1732520;81;21234;-83
2020/12/11 01:46:44;;;;;;;24.75;13.22;;;;;;;0.34;100.00;100318.55;1682444;82;21093;-83
2020/12/11 01:49:21;;;;;;;24.20;14.07;;;;;;;0.31;100.00;100325.23;1680104;81;21024;-82
2020/12/11 01:52:23;;;;;;;23.63;13.30;;;;;;;0.29;100.00;100327.70;1723716;81;21119;-84
2020/12/11 01:55:38;;;;;;;22.97;14.00;;;;;;;0.25;100.00;100318.27;1744968;80;21153;-83
2020/12/11 01:58:36;;;;;;;25.33;13.60;;;;;;;0.23;100.00;100316.95;1724903;79;21184;-83
2020/12/11 02:01:39;;;;;;;27.37;15.07;;;;;;;0.21;100.00;100312.63;1724677;79;20927;-83
2020/12/11 02:14:18;;;;;;;21.67;14.03;;;;;;;0.16;100.00;100316.70;1746005;77;21072;-83
2020/12/11 02:20:21;;;;;;;21.77;13.07;;;;;;;0.07;100.00;100312.62;1777615;78;21047;-82
2020/12/11 02:22:59;;;;;;;29.67;13.50;;;;;;;0.04;100.00;100312.52;1761920;79;20882;-84
2020/12/11 02:25:33;;;;;;;22.63;12.57;;;;;;;0.05;100.00;100307.46;1731005;78;21384;-84
2020/12/11 02:28:05;;;;;;;23.07;12.80;;;;;;;0.02;100.00;100313.72;1776569;78;20961;-82
2020/12/11 02:33:50;;;;;;;25.67;12.23;;;;;;;0.03;100.00;100306.95;1774102;77;21497;-83
2020/12/11 02:36:27;;;;;;;25.43;14.40;;;;;;;0.03;100.00;100307.81;1774089;80;20926;-84
2020/12/11 02:39:09;;;;;;;24.03;12.57;;;;;;;0.08;100.00;100318.15;1779911;80;21210;-83
2020/12/11 02:41:50;;;;;;;23.77;12.80;;;;;;;0.02;100.00;100308.63;1755444;80;20946;-83
2020/12/11 02:47:45;;;;;;;26.30;12.27;;;;;;;0.01;100.00;100324.72;1777305;79;21003;-84
2020/12/11 02:50:38;;;;;;;17.40;10.23;;;;;;;0.02;100.00;100330.67;1747987;79;20910;-83
2020/12/11 03:13:30;;;;;;;19.27;12.33;;;;;;;-0.14;100.00;100335.24;1666929;84;20949;-83
2020/12/11 03:19:54;;;;;;;22.70;12.80;;;;;;;-0.18;100.00;100341.05;1647275;84;21066;-83
2020/12/11 03:22:53;;;;;;;21.63;12.00;;;;;;;-0.15;100.00;100341.16;1689473;84;20944;-82
2020/12/11 03:25:54;;;;;;;21.43;13.20;;;;;;;-0.14;100.00;100333.97;1644834;82;20982;-82
2020/12/11 03:28:41;;;;;;;23.40;13.20;;;;;;;-0.18;100.00;100327.06;1642606;84;20929;-82
2020/12/11 03:31:40;;;;;;;22.17;11.43;;;;;;;-0.18;100.00;100321.13;1697440;80;21091;-82
2020/12/11 03:34:32;;;;;;;18.60;11.27;;;;;;;-0.21;100.00;100321.87;1657849;83;21079;-81
2020/12/11 03:37:04;;;;;;;22.25;10.23;;;;;;;-0.26;100.00;100310.30;1754656;80;20966;-81
2020/12/11 03:39:57;;;;;;;20.20;12.07;;;;;;;-0.30;100.00;100314.80;1729970;81;21240;-81
2020/12/11 03:42:31;;;;;;;18.77;11.17;;;;;;;-0.28;100.00;100317.00;1735197;80;20954;-82
2020/12/11 03:45:17;;;;;;;29.77;12.30;;;;;;;-0.32;100.00;100316.86;1713640;82;20915;-82
2020/12/11 03:48:05;;;;;;;18.77;11.00;;;;;;;-0.32;100.00;100325.76;1715398;80;20880;-80
2020/12/11 03:50:46;;;;;;;26.73;12.20;;;;;;;-0.32;100.00;100328.30;1737253;81;20969;-82
2020/12/11 03:53:47;;;;;;;18.37;10.50;;;;;;;-0.37;100.00;100331.94;1723747;80;20980;-82
2020/12/11 03:56:46;;;;;;;19.93;11.93;;;;;;;-0.36;100.00;100328.98;1727101;81;20966;-81
2020/12/11 03:59:48;;;;;;;23.02;12.35;;;;;;;-0.39;100.00;100331.05;1663433;83;20955;-83
2020/12/11 04:02:34;;;;;;;18.90;11.60;;;;;;;-0.37;100.00;100334.89;1717964;80;20966;-80
2020/12/11 04:05:44;;;;;;;21.37;13.62;;;;;;;-0.37;100.00;100326.85;1716700;80;20924;-81
2020/12/11 04:08:38;;;;;;;21.70;11.23;;;;;;;-0.38;100.00;100342.06;1773761;79;21715;-82
2020/12/11 04:11:31;;;;;;;27.10;11.47;;;;;;;-0.38;100.00;100341.66;1719353;79;20948;-83
2020/12/11 04:17:18;;;;;;;21.68;10.75;;;;;;;-0.42;100.00;100332.62;1729188;79;21055;-82
2020/12/11 04:23:20;;;;;;;23.73;13.33;;;;;;;-0.44;100.00;100335.09;1789750;78;21303;-81
2020/12/11 04:26:02;;;;;;;20.80;11.50;;;;;;;-0.40;100.00;100327.16;1755359;81;20960;-79
2020/12/11 04:28:37;;;;;;;20.37;12.27;;;;;;;-0.41;100.00;100334.34;1728162;79;21098;-82
2020/12/11 04:31:11;;;;;;;19.87;10.83;;;;;;;-0.40;100.00;100329.70;1690593;82;20944;-81
2020/12/11 04:33:45;;;;;;;18.95;10.00;;;;;;;-0.44;100.00;100340.59;1713025;83;20939;-82
2020/12/11 04:36:25;;;;;;;21.67;12.67;;;;;;;-0.47;100.00;100338.80;1690047;82;21749;-81
2020/12/11 04:39:00;;;;;;;26.67;13.03;;;;;;;-0.45;100.00;100337.59;1657055;79;20930;-82
2020/12/11 04:44:46;;;;;;;21.57;11.97;;;;;;;-0.45;100.00;100329.97;1781043;80;20966;-82
2020/12/11 04:47:35;;;;;;;19.43;11.83;;;;;;;-0.50;100.00;100331.06;1786475;79;20895;-84
2020/12/11 04:50:15;;;;;;;23.67;12.20;;;;;;;-0.55;100.00;100341.50;1786301;78;20886;-84
2020/12/11 04:52:59;;;;;;;18.07;10.83;;;;;;;-0.59;100.00;100332.01;1765096;80;20938;-83
2020/12/11 04:55:34;;;;;;;25.57;13.10;;;;;;;-0.59;100.00;100340.91;1784846;77;21119;-81
2020/12/11 04:58:08;;;;;;;21.77;12.93;;;;;;;-0.56;100.00;100344.41;1818499;77;21034;-82
2020/12/11 05:00:39;;;;;;;26.67;11.90;;;;;;;-0.56;100.00;100349.91;1814158;78;21041;-80
2020/12/11 05:03:22;;;;;;;23.03;12.93;;;;;;;-0.62;100.00;100348.42;1816133;79;21763;-82
2020/12/11 05:06:03;;;;;;;24.27;12.90;;;;;;;-0.66;100.00;100360.56;1768227;79;21067;-81
2020/12/11 05:08:47;;;;;;;23.67;13.57;;;;;;;-0.67;100.00;100367.33;1772196;80;21069;-82
2020/12/11 05:11:29;;;;;;;20.73;11.03;;;;;;;-0.66;100.00;100363.10;1795035;79;21087;-82
2020/12/11 05:14:27;;;;;;;26.50;12.83;;;;;;;-0.66;100.00;100360.15;1811163;78;20965;-82
2020/12/11 05:17:07;;;;;;;18.00;10.73;;;;;;;-0.64;100.00;100362.35;1798007;79;21203;-82
2020/12/11 05:23:01;;;;;;;20.07;11.83;;;;;;;-0.83;97.93;100365.05;1737162;78;21083;-81
2020/12/11 05:25:45;;;;;;;19.27;10.43;;;;;;;-0.90;98.29;100371.58;1699522;78;21330;-81
2020/12/11 05:28:19;;;;;;;19.57;11.30;;;;;;;-0.99;97.17;100378.85;1730390;81;21060;-82
2020/12/11 05:31:21;;;;;;;18.97;11.13;;;;;;;-1.01;98.00;100380.08;1764720;78;21453;-83
2020/12/11 05:34:13;;;;;;;17.82;10.18;;;;;;;-1.06;98.24;100381.57;1739449;81;21020;-81
2020/12/11 05:36:59;;;;;;;22.07;11.37;;;;;;;-1.14;97.52;100382.97;1727646;81;21083;-81
2020/12/11 05:39:41;;;;;;;21.83;12.47;;;;;;;-1.20;98.07;100391.62;1732405;81;21059;-82
2020/12/11 05:42:40;;;;;;;21.83;11.27;;;;;;;-1.22;97.92;100381.39;1682022;81;21186;-80
2020/12/11 05:45:40;;;;;;;18.87;10.97;;;;;;;-1.27;97.63;100387.98;1717286;78;21079;-82
2020/12/11 05:48:41;;;;;;;21.73;11.93;;;;;;;-1.27;97.88;100385.45;1667950;84;21094;-80
2020/12/11 05:51:51;;;;;;;19.53;11.10;;;;;;;-1.31;97.19;100400.10;1627092;83;21155;-81
2020/12/11 05:54:45;;;;;;;21.50;12.67;;;;;;;-1.36;97.44;100392.70;1623195;83;21087;-82
2020/12/11 05:57:19;;;;;;;16.73;10.23;;;;;;;-1.34;97.55;100396.55;1630904;84;21066;-83
2020/12/11 05:59:54;;;;;;;20.33;10.57;;;;;;;-1.32;97.55;100392.41;1634579;84;21401;-82
2020/12/11 06:02:32;;;;;;;21.73;11.00;;;;;;;-1.31;97.39;100397.94;1592101;81;21468;-84
2020/12/11 06:05:20;;;;;;;18.77;10.83;;;;;;;-1.29;97.47;100398.88;1718865;82;21074;-81
2020/12/11 06:07:59;;;;;;;20.00;11.83;;;;;;;-1.26;97.81;100401.53;1700830;83;21111;-80
2020/12/11 06:10:33;;;;;;;22.63;12.33;;;;;;;-1.27;96.59;100392.20;1689069;81;21089;-82
2020/12/11 06:13:04;;;;;;;17.55;10.80;;;;;;;-1.28;96.58;100395.11;1706085;82;21212;-83
2020/12/11 06:15:47;;;;;;;17.13;11.53;;;;;;;-1.26;96.59;100396.05;1730593;81;21095;-82
2020/12/11 06:18:27;;;;;;;16.43;11.53;;;;;;;-1.24;96.67;100396.98;1724771;81;21136;-81
2020/12/11 06:20:57;;;;;;;25.40;13.47;;;;;;;-1.23;95.96;100406.73;1713636;81;21057;-81
2020/12/11 06:23:31;;;;;;;21.27;11.77;;;;;;;-1.28;94.88;100405.27;1677895;84;21069;-82
2020/12/11 06:26:19;;;;;;;20.43;10.17;;;;;;;-1.29;95.03;100402.27;1706367;83;21692;-82
2020/12/11 06:29:27;;;;;;;22.73;12.13;;;;;;;-1.38;93.98;100392.17;1689315;80;21049;-83
2020/12/11 06:32:19;;;;;;;18.97;10.87;;;;;;;-1.49;94.77;100398.97;1699487;82;21077;-82
2020/12/11 06:35:12;;;;;;;18.93;11.03;;;;;;;-1.56;95.15;100388.53;1661869;83;21116;-84
2020/12/11 06:37:47;;;;;;;24.20;12.07;;;;;;;-1.60;94.38;100401.88;1665751;79;21224;-78
2020/12/11 06:40:51;;;;;;;23.63;12.43;;;;;;;-1.63;94.01;100397.57;1758924;77;21474;-82
2020/12/11 06:43:42;;;;;;;22.50;12.53;;;;;;;-1.67;93.77;100396.59;1812830;77;21531;-81
2020/12/11 06:46:20;;;;;;;21.77;11.12;;;;;;;-1.71;93.44;100395.11;1776347;79;21029;-83
2020/12/11 06:49:16;;;;;;;18.80;11.57;;;;;;;-1.74;93.18;100394.58;1738842;81;21006;-83
2020/12/11 06:51:57;;;;;;;20.97;10.77;;;;;;;-1.73;93.68;100396.34;1750159;79;21041;-81
2020/12/11 07:01:00;;;;;;;20.50;11.87;;;;;;;-1.74;90.81;100411.48;1692947;82;21073;-85
2020/12/11 07:03:37;;;;;;;21.20;11.17;;;;;;;-1.81;91.59;100387.53;1697912;81;21042;-83
2020/12/11 07:22:20;;;;;;;16.53;10.07;;;;;;;-2.12;92.63;100376.16;1757220;77;22512;-86
2020/12/11 07:25:28;;;;;;;19.60;10.00;;;;;;;-2.03;93.15;100376.05;1696636;81;21100;-81
2020/12/11 07:28:02;;;;;;;19.07;11.40;;;;;;;-1.95;92.42;100378.11;1703632;83;21190;-81
2020/12/11 07:30:33;;;;;;;23.50;12.20;;;;;;;-1.89;92.75;100380.90;1725034;81;21069;-83
2020/12/11 07:33:09;;;;;;;20.90;10.80;;;;;;;-1.82;92.99;100369.33;1704187;83;21077;-82
2020/12/11 07:35:43;;;;;;;23.80;12.23;;;;;;;-1.87;92.43;100372.07;1726353;81;21084;-83
2020/12/11 07:38:12;;;;;;;24.03;12.47;;;;;;;-1.95;91.28;100374.72;1719130;82;21419;-79
2020/12/11 07:40:42;;;;;;;19.67;11.10;;;;;;;-2.03;90.90;100365.91;1723258;81;21081;-81
2020/12/11 07:43:13;;;;;;;;;;;;;;;-2.16;91.25;100365.81;1715940;81;21091;-82
2020/12/11 07:45:41;;;;;;;18.33;9.33;;;;;;;-2.16;91.81;100366.70;1724485;81;20224;-80
2020/12/11 07:48:09;;;;;;;22.93;11.90;;;;;;;-2.09;92.33;100367.82;1708652;82;21045;-81
2020/12/11 07:50:38;;;;;;;18.53;10.57;;;;;;;-2.02;92.22;100367.67;1722961;79;21430;-80
2020/12/11 07:53:12;;;;;;;22.53;12.50;;;;;;;-2.05;92.83;100363.33;1693603;79;21097;-79
2020/12/11 07:55:42;;;;;;;23.77;12.27;;;;;;;-2.05;92.69;100370.94;1699925;83;21099;-80
2020/12/11 07:58:12;;;;;;;20.10;9.77;;;;;;;-2.06;92.81;100362.87;1670408;84;21106;-79
2020/12/11 08:00:41;;;;;;;26.67;12.67;;;;;;;-2.04;92.51;100368.86;1704095;83;21015;-80
2020/12/11 08:03:10;;;;;;;21.27;11.17;;;;;;;-2.03;92.50;100364.65;1696990;83;21215;-79
2020/12/11 08:05:39;;;;;;;26.00;11.47;;;;;;;-2.12;92.33;100377.83;1703311;82;21086;-79
2020/12/11 08:08:09;;;;;;;19.23;12.03;;;;;;;-2.19;91.89;100374.17;1696237;82;21086;-79
2020/12/11 08:10:40;;;;;;;20.70;10.73;;;;;;;-2.21;92.22;100367.30;1700044;82;21117;-80
2020/12/11 08:13:16;;;;;;;18.80;11.73;;;;;;;-2.22;92.34;100360.11;1698638;82;21043;-79
2020/12/11 08:15:45;;;;;;;21.73;13.27;;;;;;;-2.23;92.68;100372.70;1743548;80;21252;-80
2020/12/11 08:18:20;;;;;;;21.30;11.13;;;;;;;-2.22;93.21;100376.58;1746110;80;21054;-80
2020/12/11 08:20:54;;;;;;;21.50;11.43;;;;;;;-2.19;93.33;100365.68;1696744;81;21528;-79
2020/12/11 08:23:40;;;;;;;24.03;12.63;;;;;;;-2.22;93.27;100376.98;1747023;80;21050;-81
2020/12/11 08:26:15;;;;;;;17.43;9.80;;;;;;;-2.21;92.33;100371.11;1744472;81;21057;-81
2020/12/11 08:28:49;;;;;;;23.73;12.23;;;;;;;-2.31;91.82;100369.00;1725798;82;21197;-80
2020/12/11 08:31:24;;;;;;;20.53;11.57;;;;;;;-2.22;91.56;100357.98;1746901;80;21015;-80
2020/12/11 08:34:14;;;;;;;16.60;10.20;;;;;;;-2.25;90.84;100360.39;1691768;83;21066;-80
2020/12/11 08:36:50;;;;;;;19.73;11.93;;;;;;;-2.28;90.36;100362.79;1704925;82;21462;-80
2020/12/11 08:39:25;;;;;;;16.93;10.53;;;;;;;-2.16;90.57;100364.54;1677565;83;21494;-77
2020/12/11 08:49:51;;;;;;;19.87;12.90;;;;;;;-1.74;89.21;100338.78;1759527;80;20926;-81
2020/12/11 08:52:19;;;;;;;25.83;11.20;;;;;;;-1.54;87.54;100348.84;1734271;79;21078;-77
2020/12/11 08:54:47;;;;;;;27.10;13.50;;;;;;;-1.61;85.36;100352.81;1781446;79;21497;-76
2020/12/11 08:57:15;;;;;;;19.43;12.37;;;;;;;-1.72;85.88;100341.40;1770692;79;21086;-76
2020/12/11 08:59:45;;;;;;;24.43;12.33;;;;;;;-1.83;86.49;100352.77;1761279;79;21030;-77
2020/12/11 09:02:14;;;;;;;22.60;12.90;;;;;;;-1.98;87.46;100356.44;1731944;80;21048;-76
2020/12/11 09:04:42;;;;;;;20.57;12.93;;;;;;;-1.95;87.35;100365.84;1710145;83;21059;-78
2020/12/11 09:07:11;;;;;;;22.20;10.20;;;;;;;-1.94;87.60;100364.62;1765804;79;21355;-78
2020/12/11 09:09:42;;;;;;;21.33;12.73;;;;;;;-1.95;87.28;100363.30;1777344;79;21046;-77
2020/12/11 09:12:15;;;;;;;16.30;10.32;;;;;;;-1.85;87.55;100360.73;1766840;79;21063;-78
2020/12/11 09:14:44;;;;;;;18.60;10.90;;;;;;;-1.78;87.90;100358.50;1759107;80;21053;-76
2020/12/11 09:17:11;;;;;;;19.43;12.47;;;;;;;-1.76;86.50;100364.51;1799313;79;21100;-76
2020/12/11 09:19:40;;;;;;;19.73;10.13;;;;;;;-1.85;86.97;100353.99;1778658;79;22093;-79
2020/12/11 09:22:07;;;;;;;22.00;12.80;;;;;;;-1.96;87.24;100356.52;1771352;80;21168;-79
2020/12/11 09:24:35;;;;;;;20.83;12.67;;;;;;;-2.04;88.07;100341.38;1793954;79;21042;-78
2020/12/11 09:27:05;;;;;;;25.37;11.90;;;;;;;-2.09;88.61;100346.65;1794107;79;21054;-78
2020/12/11 09:29:37;;;;;;;20.23;11.43;;;;;;;-2.14;88.91;100352.41;1767822;79;21079;-79
2020/12/11 09:32:05;;;;;;;16.12;9.83;;;;;;;-2.18;89.54;100347.16;1776737;79;21180;-78
2020/12/11 09:34:34;;;;;;;18.35;11.38;;;;;;;-2.20;89.70;100336.94;1770744;79;21091;-79
2020/12/11 09:37:04;;;;;;;23.83;13.73;;;;;;;-2.21;89.43;100342.82;1776118;79;21044;-79
2020/12/11 09:39:33;;;;;;;15.83;10.77;;;;;;;-2.25;89.13;100340.11;1762611;79;20903;-78
2020/12/11 09:42:25;;;;;;;28.30;10.93;;;;;;;-2.32;89.76;100339.00;1768566;79;21086;-79
2020/12/11 09:44:52;;;;;;;17.83;10.70;;;;;;;-2.40;90.88;100337.39;1793594;79;21192;-79
2020/12/11 09:52:42;;;;;;;25.65;11.95;;;;;;;-2.32;91.36;100338.10;1786953;78;21042;-77
2020/12/11 09:55:00;;;;;;;16.50;11.43;;;;;;;-2.27;90.16;100321.03;1775953;79;21052;-78
2020/12/11 09:57:31;;;;;;;18.20;10.03;;;;;;;-2.31;90.75;100327.19;1757442;79;21197;-78
2020/12/11 10:00:03;;;;;;;20.57;12.82;;;;;;;-2.30;90.94;100323.84;1756705;80;21042;-78
2020/12/11 10:02:55;;;;;;;19.37;11.97;;;;;;;-2.25;90.77;100314.37;1755170;79;21077;-79
2020/12/11 10:05:14;;;;;;;20.17;12.33;;;;;;;-2.28;89.22;100318.04;1741236;79;21104;-77
2020/12/11 10:07:45;;;;;;;21.47;11.10;;;;;;;-2.31;89.16;100317.05;1757999;80;21069;-78
2020/12/11 10:10:13;;;;;;;23.47;13.03;;;;;;;-2.39;89.08;100307.47;1753536;80;21399;-79
2020/12/11 10:12:41;;;;;;;21.07;12.43;;;;;;;-2.38;89.41;100305.80;1746661;79;21053;-77
2020/12/11 10:15:11;;;;;;;21.97;12.67;;;;;;;-2.38;89.81;100296.93;1760379;80;21041;-79
2020/12/11 10:17:40;;;;;;;24.30;13.33;;;;;;;-2.30;89.65;100289.63;1768843;79;21059;-79
2020/12/11 10:20:08;;;;;;;23.43;12.07;;;;;;;-2.22;88.92;100287.02;1776572;79;21066;-79
2020/12/11 10:22:36;;;;;;;23.17;12.03;;;;;;;-2.37;88.65;100294.45;1769177;80;21202;-78
2020/12/11 10:25:06;;;;;;;23.20;12.23;;;;;;;-2.43;89.47;100287.00;1755012;79;21045;-78
2020/12/11 10:27:34;;;;;;;19.15;9.73;;;;;;;-2.46;89.57;100292.80;1741229;79;21076;-78
2020/12/11 10:30:04;;;;;;;20.70;12.03;;;;;;;-2.33;89.93;100280.64;1735883;79;21084;-77
2020/12/11 10:32:32;;;;;;;19.03;11.77;;;;;;;-2.13;89.23;100288.63;1755991;80;21050;-78
2020/12/11 10:35:00;;;;;;;16.03;9.97;;;;;;;-1.97;88.68;100282.50;1756091;79;21371;-78
2020/12/11 10:37:28;;;;;;;24.97;11.93;;;;;;;-1.92;88.49;100287.37;1756955;79;21096;-77
2020/12/11 10:39:57;;;;;;;18.23;11.43;;;;;;;-2.03;88.90;100296.20;1725659;80;21477;-80
2020/12/11 10:42:26;;;;;;;22.03;12.83;;;;;;;-2.08;89.35;100293.91;1786055;79;21471;-79
2020/12/11 10:44:53;;;;;;;23.60;12.87;;;;;;;-2.04;90.15;100290.69;1763797;79;21049;-78
2020/12/11 10:47:21;;;;;;;23.07;14.53;;;;;;;-1.97;90.09;100285.91;1776774;80;21376;-79
2020/12/11 10:49:49;;;;;;;24.13;14.23;;;;;;;-1.89;90.48;100278.62;1770515;79;21490;-79
2020/12/11 10:52:19;;;;;;;24.90;14.53;;;;;;;-1.77;89.93;100282.02;1761381;79;21094;-78
2020/12/11 10:54:48;;;;;;;22.60;13.73;;;;;;;-1.67;89.63;100273.94;1726889;80;21101;-79
2020/12/11 10:57:16;;;;;;;23.37;13.97;;;;;;;-1.53;89.71;100279.56;1729042;80;21065;-78
2020/12/11 10:59:44;;;;;;;26.07;13.80;;;;;;;-1.36;89.40;100282.72;1704744;82;21454;-78
2020/12/11 11:02:12;;;;;;;25.30;14.17;;;;;;;-1.20;89.18;100278.25;1727272;80;21057;-77
2020/12/11 11:04:42;;;;;;;20.87;12.97;;;;;;;-1.02;88.77;100274.63;1643398;86;21088;-78
2020/12/11 11:07:14;;;;;;;21.00;12.47;;;;;;;-0.90;87.19;100281.42;1684502;83;21071;-78
2020/12/11 11:09:48;;;;;;;24.75;13.45;;;;;;;-0.92;84.02;100275.82;1711087;82;21036;-76
2020/12/11 11:12:27;;;;;;;20.37;13.27;;;;;;;-1.12;83.55;100280.20;1674055;83;21500;-78
2020/12/11 11:20:44;;;;;;;21.47;12.23;;;;;;;-1.37;83.82;100282.23;1783624;78;20994;-79
2020/12/11 11:26:04;;;;;;;16.07;10.63;;;;;;;-1.38;84.12;100274.17;1737508;81;21096;-79
2020/12/11 11:28:17;;;;;;;21.10;10.37;;;;;;;-1.46;83.87;100269.69;1734465;81;21107;-79
2020/12/11 11:30:46;;;;;;;18.63;11.93;;;;;;;-1.63;84.83;100269.88;1755278;81;21045;-77
2020/12/11 11:33:17;;;;;;;20.72;12.25;;;;;;;-1.77;85.49;100271.45;1753081;81;20984;-79
2020/12/11 11:35:49;;;;;;;19.15;11.65;;;;;;;-1.78;86.33;100267.20;1750639;81;26122;-80
2020/12/11 11:38:19;;;;;;;22.07;12.47;;;;;;;-1.74;86.69;100272.84;1714339;82;20956;-80
2020/12/11 11:40:49;;;;;;;20.87;13.40;;;;;;;-1.72;86.70;100267.44;1751140;81;21500;-80
2020/12/11 11:43:25;;;;;;;17.83;10.87;;;;;;;-1.73;86.77;100267.39;1741610;81;21071;-79
2020/12/11 11:45:52;;;;;;;15.07;9.47;;;;;;;-1.89;87.37;100275.67;1757510;81;21094;-78
2020/12/11 11:48:23;;;;;;;17.83;10.83;;;;;;;-1.94;87.59;100264.88;1771493;80;21258;-79
2020/12/11 11:58:15;;;;;;;22.53;12.73;;;;;;;-1.91;89.12;100263.33;1779573;77;22775;-76
2020/12/11 12:00:47;;;;;;;29.33;15.90;;;;;;;-1.92;89.15;100265.82;1766029;79;21044;-78
2020/12/11 12:03:15;;;;;;;22.43;12.93;;;;;;;-1.90;89.11;100265.08;1758518;78;22346;-79
2020/12/11 12:05:45;;;;;;;29.12;14.63;;;;;;;-1.83;89.07;100258.57;1764236;79;20937;-79
2020/12/11 12:08:20;;;;;;;24.47;14.47;;;;;;;-1.87;87.65;100253.30;1729665;81;21122;-80
2020/12/11 12:10:48;;;;;;;26.10;17.33;;;;;;;-1.98;88.28;100257.56;1740681;81;21065;-80
2020/12/11 12:13:16;;;;;;;21.90;14.20;;;;;;;-1.96;88.71;100259.77;1756654;80;20936;-80
2020/12/11 12:15:44;;;;;;;24.13;14.00;;;;;;;-2.02;87.95;100260.80;1734614;81;21336;-79
2020/12/11 12:18:15;;;;;;;23.00;14.70;;;;;;;-2.08;88.17;100264.75;1748521;81;20978;-79
2020/12/11 12:20:57;;;;;;;20.93;14.53;;;;;;;-2.13;88.07;100253.15;1727806;81;21125;-79
2020/12/11 12:29:12;;;;;;;20.37;13.57;;;;;;;-2.60;89.63;100249.17;1748991;81;21188;-78
2020/12/11 12:31:50;;;;;;;23.53;14.77;;;;;;;-2.69;90.94;100257.66;1745768;81;21081;-79
2020/12/11 12:37:21;;;;;;;25.07;16.77;;;;;;;-2.68;91.83;100245.85;1711966;82;21148;-79
2020/12/11 12:39:50;;;;;;;27.83;18.07;;;;;;;-2.60;91.44;100247.05;1749358;82;21140;-78
2020/12/11 12:44:45;;;;;;;28.02;16.35;;;;;;;-2.52;90.84;100235.95;1719721;83;21172;-79
2020/12/11 12:47:13;;;;;;;17.90;10.70;;;;;;;-2.54;90.77;100242.64;1710264;82;21160;-78
2020/12/11 12:49:42;;;;;;;31.30;15.70;;;;;;;-2.54;91.02;100249.84;1717803;82;21151;-79
2020/12/11 12:52:11;;;;;;;22.87;13.37;;;;;;;-2.58;90.62;100247.98;1688836;84;21080;-79
2020/12/11 12:54:40;;;;;;;19.67;13.57;;;;;;;-2.71;90.71;100225.50;1742822;81;21731;-78
2020/12/11 13:05:54;;;;;;;21.30;12.93;;;;;;;-2.61;91.61;100247.45;1738749;78;21158;31
2020/12/11 13:08:27;;;;;;;21.50;14.30;;;;;;;-2.54;90.95;100257.84;1716126;77;21221;-82
2020/12/11 13:10:58;;;;;;;21.03;11.80;;;;;;;-2.58;90.46;100263.19;1756155;79;21145;-81
2020/12/11 13:13:47;;;;;;;15.60;10.63;;;;;;;-2.66;90.23;100253.13;1733051;79;21155;-80
2020/12/11 13:16:30;;;;;;;16.67;10.63;;;;;;;-2.71;90.73;100254.62;1770588;78;21093;-81
2020/12/11 13:19:26;;;;;;;22.33;15.30;;;;;;;-2.75;91.20;100256.12;1724160;81;21102;-82
2020/12/11 17:15:44;;;;;;;38.80;21.30;;;;;;;-2.74;92.26;100189.52;1720523;76;21220;-82
2020/12/11 17:18:52;;;;;;;40.40;23.07;;;;;;;-2.74;92.25;100200.91;1735703;78;21607;-84
2020/12/11 17:28:23;;;;;;;33.77;20.93;;;;;;;-2.81;91.80;100201.47;1721850;80;21133;-83
2020/12/11 17:41:20;;;;;;;38.63;21.13;;;;;;;-2.95;92.18;100191.15;1738694;78;21123;-82
2020/12/11 17:47:49;;;;;;;33.27;20.83;;;;;;;-3.00;91.97;100187.17;1736749;77;21095;-83
2020/12/11 17:57:50;;;;;;;34.73;20.67;;;;;;;-3.06;92.21;100192.83;1656442;86;21127;-80
2020/12/11 18:04:07;;;;;;;28.60;17.57;;;;;;;-3.04;92.26;100194.19;1611276;87;21102;-79
2020/12/11 18:10:11;;;;;;;;;;;;;;;;;;;;;
2020/12/11 18:16:34;;;;;;;31.97;18.57;;;;;;;-3.09;91.53;100206.63;1605222;85;21654;-79
2020/12/11 18:35:44;;;;;;;32.97;18.87;;;;;;;-3.18;92.14;100193.58;1645093;81;21286;-80
2020/12/11 18:38:15;;;;;;;30.25;16.95;;;;;;;-3.20;91.99;100197.72;1687949;82;21227;-81
2020/12/11 18:40:49;;;;;;;25.33;16.57;;;;;;;-3.21;92.15;100199.77;1671311;82;21304;-80
2020/12/11 18:43:18;;;;;;;30.73;17.60;;;;;;;-3.19;92.31;100198.18;1691781;83;21126;-80
2020/12/11 18:45:55;;;;;;;26.33;13.83;;;;;;;-3.17;92.26;100202.91;1691168;83;21209;-81
2020/12/11 18:48:29;;;;;;;28.80;17.10;;;;;;;-3.19;92.17;100209.56;1718874;81;21172;-81
2020/12/11 18:51:08;;;;;;;26.20;15.27;;;;;;;-3.21;92.19;100206.09;1729785;80;21357;-81
2020/12/11 18:53:45;;;;;;;28.47;14.63;;;;;;;-3.25;92.47;100205.50;1720509;80;21133;-82
2020/12/11 18:56:32;;;;;;;27.90;14.27;;;;;;;-3.31;93.29;100204.83;1748704;80;21127;-81
2020/12/11 18:59:06;;;;;;;22.93;12.93;;;;;;;-3.34;93.76;100211.02;1749373;80;21121;-81
2020/12/11 19:02:18;;;;;;;20.67;13.30;;;;;;;-3.34;93.93;100211.42;1726824;79;21228;-79
2020/12/11 19:04:48;;;;;;;22.37;11.80;;;;;;;-3.32;94.03;100206.05;1725917;79;21217;-80